createdAt,value
2022-09-12T00:01:13.151Z,2.80
2022-09-12T00:03:42.744Z,2.40
2022-09-12T00:06:11.953Z,2.50
2022-09-12T00:08:39.657Z,3.60
2022-09-12T00:11:08.414Z,3.40
2022-09-12T00:13:41.287Z,3.80
2022-09-12T00:16:15.455Z,4.60
2022-09-12T00:18:45.110Z,3.40
2022-09-12T00:21:13.363Z,3.10
2022-09-12T00:23:40.993Z,3.70
2022-09-12T00:26:08.763Z,4.60
2022-09-12T00:28:37.653Z,4.50
2022-09-12T00:31:09.595Z,4.50
2022-09-12T00:33:37.479Z,4.30
2022-09-12T00:36:10.467Z,7.00
2022-09-12T00:41:06.533Z,4.90
2022-09-12T00:43:39.392Z,4.90
2022-09-12T00:46:27.301Z,4.40
2022-09-12T00:48:58.405Z,5.30
2022-09-12T00:51:27.028Z,5.10
2022-09-12T00:53:55.406Z,2.10
2022-09-12T00:56:23.973Z,5.20
2022-09-12T00:58:56.062Z,2.80
2022-09-12T01:01:24.375Z,5.90
2022-09-12T01:03:52.441Z,2.70
2022-09-12T01:06:27.206Z,4.80
2022-09-12T01:08:55.551Z,4.70
2022-09-12T01:11:23.165Z,2.80
2022-09-12T01:13:50.954Z,4.00
2022-09-12T01:16:18.832Z,1.60
2022-09-12T01:18:55.699Z,2.70
2022-09-12T01:21:43.283Z,6.80
2022-09-12T01:24:19.973Z,5.40
2022-09-12T01:27:10.945Z,2.20
2022-09-12T01:29:54.097Z,1.90
2022-09-12T01:34:49.336Z,3.80
2022-09-12T01:37:29.283Z,2.70
2022-09-12T01:40:00.211Z,6.40
2022-09-12T01:42:30.904Z,4.00
2022-09-12T01:45:06.604Z,4.00
2022-09-12T01:47:40.152Z,4.10
2022-09-12T01:50:14.055Z,3.00
2022-09-12T01:52:44.880Z,2.30
2022-09-12T01:55:13.455Z,2.40
2022-09-12T01:57:44.978Z,2.00
2022-09-12T02:00:13.306Z,3.30
2022-09-12T02:02:40.882Z,4.00
2022-09-12T02:05:10.785Z,4.10
2022-09-12T02:07:41.616Z,5.60
2022-09-12T02:10:12.160Z,3.00
2022-09-12T02:13:00.877Z,4.10
2022-09-12T02:15:32.772Z,6.90
2022-09-12T02:18:04.422Z,4.30
2022-09-12T02:20:51.550Z,3.90
2022-09-12T02:23:22.481Z,3.90
2022-09-12T02:25:52.965Z,3.80
2022-09-12T02:28:30.404Z,5.10
2022-09-12T02:31:01.207Z,7.70
2022-09-12T02:33:35.082Z,4.30
2022-09-12T02:36:13.636Z,2.40
2022-09-12T02:38:44.582Z,3.20
2022-09-12T02:41:13.255Z,3.10
2022-09-12T02:43:40.827Z,3.00
2022-09-12T02:46:10.694Z,4.80
2022-09-12T02:48:41.404Z,7.30
2022-09-12T02:51:09.643Z,3.60
2022-09-12T02:53:37.268Z,2.70
2022-09-12T02:56:07.712Z,6.90
2022-09-12T02:58:35.475Z,3.70
2022-09-12T03:01:03.259Z,5.50
2022-09-12T03:03:49.597Z,4.80
2022-09-12T03:06:37.396Z,4.10
2022-09-12T03:09:10.564Z,2.90
2022-09-12T03:11:56.820Z,3.60
2022-09-12T03:14:34.808Z,2.70
2022-09-12T03:17:05.418Z,3.40
2022-09-12T03:19:39.165Z,3.60
2022-09-12T03:22:27.233Z,3.70
2022-09-12T03:25:05.973Z,6.10
2022-09-12T03:27:35.459Z,4.00
2022-09-12T03:30:06.645Z,4.40
2022-09-12T03:32:41.446Z,3.40
2022-09-12T03:35:09.756Z,2.90
2022-09-12T03:37:37.545Z,4.70
2022-09-12T03:40:06.317Z,4.60
2022-09-12T03:42:33.930Z,9.80
2022-09-12T03:45:01.552Z,3.10
2022-09-12T03:47:29.196Z,2.50
2022-09-12T03:49:56.924Z,2.90
2022-09-12T03:52:24.779Z,4.10
2022-09-12T03:54:52.467Z,3.20
2022-09-12T03:57:20.247Z,2.20
2022-09-12T03:59:48.956Z,3.90
2022-09-12T04:02:17.032Z,3.50
2022-09-12T04:04:44.961Z,4.60
2022-09-12T04:07:12.531Z,5.00
2022-09-12T04:09:40.191Z,4.10
2022-09-12T04:12:08.063Z,5.30
2022-09-12T04:14:35.826Z,4.10
2022-09-12T04:17:03.565Z,4.80
2022-09-12T04:19:31.161Z,5.90
2022-09-12T04:21:58.843Z,5.80
2022-09-12T04:24:27.321Z,3.00
2022-09-12T04:26:55.006Z,4.80
2022-09-12T04:29:22.684Z,2.80
2022-09-12T04:31:50.320Z,5.90
2022-09-12T04:34:18.627Z,3.90
2022-09-12T04:36:46.246Z,4.50
2022-09-12T04:39:14.358Z,4.30
2022-09-12T04:41:42.849Z,5.60
2022-09-12T04:44:12.375Z,9.90
2022-09-12T04:46:44.843Z,4.90
2022-09-12T04:49:14.225Z,5.00
2022-09-12T04:51:42.585Z,6.80
2022-09-12T04:54:17.243Z,5.50
2022-09-12T04:56:46.021Z,8.00
2022-09-12T04:59:15.461Z,4.80
2022-09-12T05:01:47.198Z,4.60
2022-09-12T05:04:15.202Z,4.40
2022-09-12T05:06:43.498Z,3.90
2022-09-12T05:09:12.707Z,5.10
2022-09-12T05:12:04.129Z,8.30
2022-09-12T05:14:33.394Z,5.80
2022-09-12T05:17:01.972Z,7.70
2022-09-12T05:19:30.911Z,3.00
2022-09-12T05:22:02.804Z,5.70
2022-09-12T05:24:30.893Z,5.40
2022-09-12T05:26:58.853Z,5.90
2022-09-12T05:29:27.152Z,4.50
2022-09-12T05:31:54.872Z,5.80
2022-09-12T05:34:23.082Z,4.10
2022-09-12T05:36:54.533Z,6.30
2022-09-12T05:39:29.827Z,7.30
2022-09-12T05:42:00.864Z,5.00
2022-09-12T05:44:33.323Z,3.40
2022-09-12T05:47:01.447Z,5.30
2022-09-12T05:49:32.882Z,3.10
2022-09-12T05:52:00.824Z,3.10
2022-09-12T05:54:31.906Z,3.70
2022-09-12T05:57:06.417Z,3.50
2022-09-12T05:59:34.314Z,4.80
2022-09-12T06:02:03.435Z,3.10
2022-09-12T06:04:33.717Z,4.90
2022-09-12T06:07:01.999Z,4.50
2022-09-12T06:09:30.164Z,4.40
2022-09-12T06:12:01.192Z,4.20
2022-09-12T06:14:51.672Z,5.60
2022-09-12T06:17:20.089Z,4.60
2022-09-12T06:19:54.352Z,5.50
2022-09-12T06:22:28.064Z,6.00
2022-09-12T06:25:03.950Z,5.20
2022-09-12T06:27:32.496Z,6.80
2022-09-12T06:30:01.087Z,3.70
2022-09-12T06:32:30.625Z,4.10
2022-09-12T06:34:58.888Z,5.50
2022-09-12T06:37:31.691Z,6.90
2022-09-12T06:40:03.900Z,4.50
2022-09-12T06:42:37.074Z,3.80
2022-09-12T06:45:10.186Z,4.90
2022-09-12T06:47:51.246Z,6.30
2022-09-12T06:50:33.312Z,2.60
2022-09-12T06:53:05.773Z,6.50
2022-09-12T06:55:44.356Z,5.20
2022-09-12T06:58:27.687Z,5.60
2022-09-12T07:01:08.949Z,6.60
2022-09-12T07:03:38.087Z,3.60
2022-09-12T07:06:28.833Z,4.50
2022-09-12T07:09:31.235Z,5.00
2022-09-12T07:12:07.615Z,7.80
2022-09-12T07:17:31.317Z,3.00
2022-09-12T07:20:12.887Z,4.30
2022-09-12T07:22:51.147Z,2.70
2022-09-12T07:25:23.801Z,4.80
2022-09-12T07:28:02.984Z,3.00
2022-09-12T07:33:34.659Z,3.40
2022-09-12T07:36:04.342Z,3.50
2022-09-12T07:38:40.177Z,4.50
2022-09-12T07:41:16.043Z,2.90
2022-09-12T07:43:56.638Z,5.50
2022-09-12T07:46:29.035Z,4.10
2022-09-12T07:48:58.679Z,3.40
2022-09-12T07:51:27.578Z,5.50
2022-09-12T07:53:57.026Z,4.30
2022-09-12T07:56:38.265Z,3.70
2022-09-12T07:59:11.992Z,5.30
2022-09-12T08:01:40.309Z,3.60
2022-09-12T08:04:08.313Z,8.40
2022-09-12T08:06:37.055Z,4.10
2022-09-12T08:09:05.664Z,5.50
2022-09-12T08:11:33.528Z,3.50
2022-09-12T08:14:03.149Z,3.80
2022-09-12T08:16:31.635Z,3.20
2022-09-12T08:19:03.174Z,4.10
2022-09-12T08:21:32.005Z,3.10
2022-09-12T08:24:01.252Z,5.20
2022-09-12T08:26:29.263Z,3.40
2022-09-12T08:28:56.846Z,3.40
2022-09-12T08:31:25.640Z,6.20
2022-09-12T08:33:55.829Z,3.50
2022-09-12T08:36:24.706Z,5.20
2022-09-12T08:39:00.666Z,3.30
2022-09-12T08:41:41.847Z,6.10
2022-09-12T08:44:09.515Z,3.90
2022-09-12T08:46:43.115Z,3.40
2022-09-12T08:49:12.984Z,3.40
2022-09-12T08:51:41.068Z,3.20
2022-09-12T08:54:16.494Z,5.70
2022-09-12T08:56:45.193Z,3.00
2022-09-12T08:59:13.751Z,4.20
2022-09-12T09:01:43.258Z,2.90
2022-09-12T09:04:37.545Z,6.70
2022-09-12T09:07:17.376Z,5.60
2022-09-12T09:10:06.884Z,3.30
2022-09-12T09:12:37.901Z,3.80
2022-09-12T09:15:14.804Z,2.40
2022-09-12T09:17:46.610Z,2.80
2022-09-12T09:20:15.107Z,4.30
2022-09-12T09:22:42.693Z,4.70
2022-09-12T09:25:22.983Z,4.60
2022-09-12T09:27:54.255Z,4.30
2022-09-12T09:30:21.925Z,3.80
2022-09-12T09:32:51.378Z,4.60
2022-09-12T09:35:42.283Z,6.20
2022-09-12T09:38:23.554Z,4.50
2022-09-12T09:40:51.316Z,6.70
2022-09-12T09:43:23.136Z,2.80
2022-09-12T09:45:52.028Z,2.60
2022-09-12T09:48:22.634Z,3.50
2022-09-12T09:50:50.363Z,3.70
2022-09-12T09:53:24.202Z,2.70
2022-09-12T09:55:53.820Z,3.40
2022-09-12T09:58:31.749Z,5.20
2022-09-12T10:01:00.821Z,6.50
2022-09-12T10:03:28.918Z,6.00
2022-09-12T10:06:07.815Z,2.90
2022-09-12T10:08:37.091Z,5.60
2022-09-12T10:11:05.312Z,5.60
2022-09-12T10:13:53.381Z,5.30
2022-09-12T10:16:24.977Z,2.50
2022-09-12T10:18:53.081Z,3.40
2022-09-12T10:21:28.217Z,3.00
2022-09-12T10:24:03.874Z,3.80
2022-09-12T10:26:36.198Z,5.40
2022-09-12T10:29:13.048Z,4.60
2022-09-12T10:31:45.971Z,3.30
2022-09-12T10:36:41.062Z,5.50
2022-09-12T10:39:16.502Z,2.80
2022-09-12T10:41:44.413Z,8.80
2022-09-12T10:44:24.855Z,8.60
2022-09-12T10:46:52.492Z,4.50
2022-09-12T10:49:21.456Z,4.40
2022-09-12T10:51:49.395Z,5.60
2022-09-12T10:54:21.434Z,5.10
2022-09-12T10:56:49.457Z,3.20
2022-09-12T10:59:34.069Z,4.40
2022-09-12T11:02:10.741Z,2.80
2022-09-12T11:04:42.066Z,4.50
2022-09-12T11:07:28.316Z,3.00
2022-09-12T11:09:58.731Z,5.10
2022-09-12T11:12:41.666Z,3.40
2022-09-12T11:15:27.926Z,2.10
2022-09-12T11:18:01.006Z,2.90
2022-09-12T11:20:48.820Z,3.40
2022-09-12T11:23:35.288Z,6.10
2022-09-12T11:26:15.320Z,5.30
2022-09-12T11:28:46.690Z,3.00
2022-09-12T11:31:17.722Z,5.30
2022-09-12T11:33:46.346Z,2.40
2022-09-12T11:36:24.667Z,3.80
2022-09-12T11:39:03.961Z,3.10
2022-09-12T11:41:34.874Z,9.70
2022-09-12T11:44:23.332Z,3.90
2022-09-12T11:46:52.110Z,5.30
2022-09-12T11:49:38.005Z,2.90
2022-09-12T11:52:11.401Z,6.30
2022-09-12T11:57:06.564Z,5.10
2022-09-12T11:59:34.213Z,1.80
2022-09-12T12:02:02.051Z,4.40
2022-09-12T12:04:38.331Z,3.90
2022-09-12T12:07:10.569Z,9.70
2022-09-12T12:09:58.623Z,6.40
2022-09-12T12:12:27.972Z,6.30
2022-09-12T12:14:56.501Z,6.40
2022-09-12T12:17:25.421Z,3.80
2022-09-12T12:20:08.156Z,4.00
2022-09-12T12:22:36.748Z,5.60
2022-09-12T12:25:05.031Z,7.60
2022-09-12T12:27:44.903Z,10.00
2022-09-12T12:30:44.707Z,4.60
2022-09-12T12:33:15.026Z,10.90
2022-09-12T12:35:43.942Z,5.10
2022-09-12T12:38:28.730Z,6.90
2022-09-12T12:41:14.765Z,5.90
2022-09-12T12:43:43.011Z,8.20
2022-09-12T12:46:14.581Z,5.10
2022-09-12T12:48:51.328Z,7.70
2022-09-12T12:51:27.681Z,6.20
2022-09-12T12:53:55.794Z,4.90
2022-09-12T12:56:32.616Z,9.50
2022-09-12T12:59:02.046Z,5.30
2022-09-12T13:01:30.101Z,5.50
2022-09-12T13:04:05.607Z,8.20
2022-09-12T13:06:43.821Z,5.70
2022-09-12T13:09:32.838Z,7.20
2022-09-12T13:12:04.345Z,7.00
2022-09-12T13:14:50.448Z,7.50
2022-09-12T13:17:36.491Z,11.30
2022-09-12T13:20:29.635Z,18.20
2022-09-12T13:22:58.019Z,15.70
2022-09-12T13:25:30.791Z,12.50
2022-09-12T13:28:07.383Z,8.60
2022-09-12T13:30:36.290Z,9.50
2022-09-12T13:33:16.977Z,6.80
2022-09-12T13:35:54.193Z,6.30
2022-09-12T13:38:30.733Z,6.20
2022-09-12T13:41:16.963Z,9.90
2022-09-12T13:43:47.091Z,6.40
2022-09-12T13:46:17.586Z,5.50
2022-09-12T13:48:45.698Z,4.40
2022-09-12T13:51:33.586Z,8.00
2022-09-12T13:54:03.091Z,4.50
2022-09-12T13:56:30.787Z,7.60
2022-09-12T13:59:01.026Z,6.00
2022-09-12T14:01:40.247Z,8.40
2022-09-12T14:04:45.285Z,6.10
2022-09-12T14:07:19.722Z,5.60
2022-09-12T14:09:54.357Z,7.50
2022-09-12T14:12:29.606Z,7.60
2022-09-12T14:14:57.444Z,7.00
2022-09-12T14:17:36.327Z,7.10
2022-09-12T14:20:07.190Z,4.80
2022-09-12T14:22:35.071Z,4.40
2022-09-12T14:25:10.407Z,5.40
2022-09-12T14:27:52.156Z,4.00
2022-09-12T14:30:25.498Z,4.50
2022-09-12T14:45:18.242Z,3.10
2022-09-12T14:47:49.673Z,3.40
2022-09-12T14:50:20.819Z,4.90
2022-09-12T14:53:04.153Z,5.40
2022-09-12T14:55:34.041Z,3.70
2022-09-12T14:58:13.855Z,4.10
2022-09-12T15:01:04.468Z,2.70
2022-09-12T15:03:49.278Z,5.10
2022-09-12T15:06:35.252Z,3.50
2022-09-12T15:09:12.356Z,4.50
2022-09-12T15:11:41.580Z,2.70
2022-09-12T15:17:11.093Z,6.20
2022-09-12T15:19:45.854Z,3.90
2022-09-12T15:22:14.468Z,2.90
2022-09-12T15:27:40.974Z,3.40
2022-09-12T15:30:18.460Z,7.40
2022-09-12T15:32:53.270Z,3.60
2022-09-12T15:35:33.140Z,3.70
2022-09-12T15:38:00.826Z,4.10
2022-09-12T15:40:32.548Z,7.00
2022-09-12T15:43:01.254Z,2.70
2022-09-12T15:45:33.013Z,3.40
2022-09-12T15:48:01.455Z,3.40
2022-09-12T15:50:29.819Z,3.80
2022-09-12T15:52:58.489Z,4.00
2022-09-12T15:55:28.509Z,4.20
2022-09-12T15:57:56.496Z,4.20
2022-09-12T16:00:24.360Z,4.80
2022-09-12T16:02:53.182Z,6.20
2022-09-12T16:05:25.426Z,6.20
2022-09-12T16:07:54.225Z,6.60
2022-09-12T16:10:24.168Z,7.60
2022-09-12T16:12:52.366Z,9.90
2022-09-12T16:15:21.825Z,13.20
2022-09-12T16:17:50.644Z,5.10
2022-09-12T16:20:19.558Z,6.70
2022-09-12T16:22:49.003Z,4.20
2022-09-12T16:25:17.594Z,4.30
2022-09-12T16:27:48.377Z,5.10
2022-09-12T16:30:17.425Z,5.70
2022-09-12T16:32:50.327Z,4.40
2022-09-12T16:35:22.315Z,6.20
2022-09-12T16:37:59.365Z,8.00
2022-09-12T16:47:10.624Z,8.80
2022-09-12T16:49:39.664Z,11.20
2022-09-12T16:52:11.803Z,8.10
2022-09-12T16:54:40.319Z,9.00
2022-09-12T16:57:11.585Z,14.30
2022-09-12T16:59:40.251Z,13.40
2022-09-12T17:02:27.948Z,8.80
2022-09-12T17:05:13.203Z,10.90
2022-09-12T17:21:39.539Z,8.60
2022-09-12T17:24:17.394Z,13.20
2022-09-12T17:26:57.067Z,11.30
2022-09-12T17:29:28.047Z,7.40
2022-09-12T17:31:58.473Z,7.40
2022-09-12T17:34:27.301Z,7.80
2022-09-12T17:36:55.708Z,8.30
2022-09-12T17:39:27.771Z,8.00
2022-09-12T17:41:58.362Z,8.40
2022-09-12T17:44:33.065Z,14.60
2022-09-12T17:47:07.100Z,8.30
2022-09-12T17:49:44.802Z,9.20
2022-09-12T18:16:55.153Z,6.50
2022-09-12T18:19:39.519Z,8.20
2022-09-12T18:22:07.662Z,8.90
2022-09-12T18:24:36.264Z,6.20
2022-09-12T18:27:05.049Z,8.60
2022-09-12T18:29:33.240Z,7.70
2022-09-12T18:32:01.413Z,10.60
2022-09-12T18:34:29.788Z,10.30
2022-09-12T18:36:57.828Z,8.90
2022-09-12T18:39:27.832Z,7.50
2022-09-12T18:41:56.506Z,13.10
2022-09-12T18:44:30.001Z,9.10
2022-09-12T18:47:06.911Z,15.60
2022-09-12T18:49:36.130Z,12.10
2022-09-12T18:52:04.954Z,7.60
2022-09-12T18:54:34.264Z,7.40
2022-09-12T18:57:03.099Z,7.50
2022-09-12T18:59:33.865Z,11.10
2022-09-12T19:02:02.057Z,12.00
2022-09-12T19:04:30.507Z,9.10
2022-09-12T19:06:58.698Z,10.80
2022-09-12T19:09:26.527Z,8.80
2022-09-12T19:11:54.256Z,10.00
2022-09-12T19:14:23.678Z,9.60
2022-09-12T19:16:54.385Z,12.10
2022-09-12T19:19:22.797Z,11.80
2022-09-12T19:21:51.360Z,10.90
2022-09-12T19:24:26.085Z,16.00
2022-09-12T19:26:54.649Z,9.80
2022-09-12T19:29:29.332Z,9.30
2022-09-12T19:32:01.544Z,11.40
2022-09-12T19:34:32.833Z,10.90
2022-09-12T19:37:04.462Z,23.80
2022-09-12T19:39:32.893Z,39.90
2022-09-12T19:42:00.876Z,34.60
2022-09-12T19:44:30.220Z,27.30
2022-09-12T19:47:06.282Z,24.90
2022-09-12T19:49:49.252Z,20.70
2022-09-12T19:52:37.499Z,22.70
2022-09-12T19:55:13.467Z,28.70
2022-09-12T19:57:41.627Z,27.90
2022-09-12T20:00:10.222Z,30.40
2022-09-12T20:02:39.212Z,25.20
2022-09-12T20:05:11.293Z,19.50
2022-09-12T20:07:42.080Z,14.80
2022-09-12T20:10:10.305Z,16.60
2022-09-12T20:12:38.475Z,24.10
2022-09-12T20:15:15.172Z,19.90
2022-09-12T20:17:44.141Z,21.10
2022-09-12T20:20:30.567Z,22.80
2022-09-12T20:23:03.622Z,23.20
2022-09-12T20:25:33.837Z,18.60
2022-09-12T20:28:01.681Z,19.90
2022-09-12T20:30:29.631Z,16.80
2022-09-12T20:32:57.210Z,22.60
2022-09-12T20:35:25.916Z,20.40
2022-09-12T20:37:53.634Z,16.40
2022-09-12T20:40:21.231Z,19.20
2022-09-12T20:42:49.335Z,13.40
2022-09-12T20:45:16.940Z,20.30
2022-09-12T20:47:44.498Z,16.00
2022-09-12T20:50:12.103Z,13.60
2022-09-12T20:52:39.662Z,13.80
2022-09-12T20:55:07.711Z,19.60
2022-09-12T20:57:35.329Z,21.90
2022-09-12T21:00:03.107Z,20.20
2022-09-12T21:02:30.897Z,18.90
2022-09-12T21:04:58.661Z,26.20
2022-09-12T21:07:26.248Z,24.90
2022-09-12T21:09:54.472Z,20.30
2022-09-12T21:12:22.447Z,16.90
2022-09-12T21:14:50.017Z,14.10
2022-09-12T21:17:17.970Z,11.80
2022-09-12T21:19:45.520Z,18.70
2022-09-12T21:22:13.166Z,15.00
2022-09-12T21:24:40.768Z,16.20
2022-09-12T21:27:08.537Z,17.80
2022-09-12T21:29:36.124Z,14.20
2022-09-12T21:32:03.834Z,15.70
2022-09-12T21:34:31.637Z,19.10
2022-09-12T21:36:59.332Z,15.20
2022-09-12T21:39:26.909Z,19.00
2022-09-12T21:41:54.610Z,15.60
2022-09-12T21:44:22.410Z,13.40
2022-09-12T21:46:50.092Z,15.80
2022-09-12T21:49:17.684Z,12.80
2022-09-12T21:51:45.277Z,18.30
2022-09-12T21:54:12.887Z,22.60
2022-09-12T21:56:40.772Z,28.20
2022-09-12T21:59:08.650Z,17.70
2022-09-12T22:01:36.954Z,13.30
2022-09-12T22:04:04.606Z,14.50
2022-09-12T22:06:32.288Z,18.60
2022-09-12T22:08:59.887Z,17.60
2022-09-12T22:11:27.654Z,23.20
2022-09-12T22:13:55.241Z,21.70
2022-09-12T22:16:22.869Z,19.40
2022-09-12T22:18:51.250Z,21.50
2022-09-12T22:21:20.251Z,16.90
2022-09-12T22:24:07.194Z,17.60
2022-09-12T22:26:44.516Z,22.10
2022-09-12T22:29:13.511Z,20.00
2022-09-12T22:31:41.095Z,18.00
2022-09-12T22:34:08.797Z,17.80
2022-09-12T22:36:38.954Z,20.10
2022-09-12T22:39:07.547Z,16.40
2022-09-12T22:41:35.180Z,12.10
2022-09-12T22:44:02.767Z,16.10
2022-09-12T22:46:30.706Z,13.10
2022-09-12T22:49:00.006Z,16.10
2022-09-12T22:51:28.100Z,18.50
2022-09-12T22:53:56.786Z,15.60
2022-09-12T22:56:24.947Z,16.10
2022-09-12T22:58:52.639Z,16.20
2022-09-12T23:01:20.450Z,17.20
2022-09-12T23:03:48.204Z,21.10
2022-09-12T23:06:16.551Z,13.90
2022-09-12T23:08:44.166Z,15.30
2022-09-12T23:11:15.752Z,16.70
2022-09-12T23:13:44.890Z,16.40
2022-09-12T23:16:22.876Z,15.00
2022-09-12T23:18:50.862Z,13.60
2022-09-12T23:21:19.651Z,15.20
2022-09-12T23:23:47.587Z,18.30
2022-09-12T23:26:15.220Z,19.20
2022-09-12T23:28:47.695Z,17.50
2022-09-12T23:31:15.600Z,13.90
2022-09-12T23:33:44.302Z,15.90
2022-09-12T23:36:14.423Z,15.50
2022-09-12T23:38:43.520Z,16.10
2022-09-12T23:41:14.057Z,17.20
2022-09-12T23:43:43.024Z,19.40
2022-09-12T23:46:11.216Z,20.70
2022-09-12T23:48:38.926Z,14.60
2022-09-12T23:51:06.746Z,15.90
2022-09-12T23:53:35.866Z,15.10
2022-09-12T23:56:04.020Z,13.80
2022-09-12T23:58:31.680Z,16.40
